Time;durP1;ratioP1;P1;durP2;ratioP2;P2;SDS_P1;SDS_P2;PMS_P1;PMS_P2;Temp;Humidity;BMP_temperature;BMP_pressure;BME280_temperature;BME280_humidity;BME280_pressure;Samples;Min_cycle;Max_cycle;Signal;HPM_P1;HPM_P2
2023/07/14 00:01:38;;;;;;;12.95;2.55;;;;;;;-146.27;75.78;81759.50;5058080;28;20053;-72
2023/07/14 00:04:13;;;;;;;7.72;2.75;;;;;;;-146.27;75.60;81765.53;5067486;28;20067;-72
2023/07/14 00:06:40;;;;;;;6.55;2.30;;;;;;;-146.27;75.57;81769.53;5066329;28;20484;-73
2023/07/14 00:09:19;;;;;;;5.38;2.20;;;;;;;-146.27;76.02;81803.69;5053433;28;20025;-72
2023/07/14 00:11:45;;;;;;;6.47;2.40;;;;;;;-146.27;76.19;81801.69;5064824;28;20041;-72
2023/07/14 00:14:10;;;;;;;6.85;2.28;;;;;;;-146.27;76.36;81801.69;5074047;28;20056;-72
2023/07/14 00:16:36;;;;;;;9.32;2.33;;;;;;;-146.27;76.24;81791.63;5057658;28;20071;-72
2023/07/14 00:19:04;;;;;;;8.85;2.55;;;;;;;-146.27;76.19;81765.53;5072324;28;20047;-72
2023/07/14 00:21:29;;;;;;;6.70;2.53;;;;;;;-146.27;75.73;81801.69;5067293;28;20024;-73
2023/07/14 00:24:00;;;;;;;11.20;2.33;;;;;;;-146.27;75.77;81833.81;5080428;28;20077;-73
2023/07/14 00:26:26;;;;;;;8.68;2.53;;;;;;;-146.27;75.78;81837.81;5064383;28;20025;-73
2023/07/14 00:28:52;;;;;;;7.63;2.15;;;;;;;-146.27;75.42;81831.81;5063210;28;20035;-72
2023/07/14 00:31:20;;;;;;;7.60;2.42;;;;;;;-146.27;75.41;81861.94;5055061;28;20028;-73
2023/07/14 00:33:51;;;;;;;10.10;2.75;;;;;;;-146.27;75.22;81867.97;5078788;28;20036;-72
2023/07/14 00:36:21;;;;;;;5.53;2.38;;;;;;;-146.27;74.82;81853.91;5064778;28;20069;-73
2023/07/14 00:38:47;;;;;;;6.05;2.35;;;;;;;-146.27;74.80;81837.81;5073149;28;20032;-72
2023/07/14 00:41:23;;;;;;;4.07;1.80;;;;;;;-146.27;74.86;81849.88;5067777;28;20035;-72
2023/07/14 00:43:50;;;;;;;9.07;3.35;;;;;;;-146.27;74.44;81861.94;5066988;28;20024;-72
2023/07/14 00:46:21;;;;;;;9.80;2.03;;;;;;;-146.27;74.61;81906.13;5065006;28;20503;-72
2023/07/14 00:48:48;;;;;;;4.80;1.83;;;;;;;-146.27;74.50;81841.84;5060320;28;20025;-72
2023/07/14 00:51:14;;;;;;;5.00;2.00;;;;;;;-146.27;74.08;81851.88;5066672;28;20024;-72
2023/07/14 00:53:43;;;;;;;7.70;2.28;;;;;;;-146.27;74.46;81876.00;5072673;28;20026;-73
2023/07/14 00:56:12;;;;;;;8.18;1.80;;;;;;;-146.27;74.24;81829.78;5064429;28;20039;-72
2023/07/14 00:58:41;;;;;;;5.10;2.15;;;;;;;-146.27;74.41;81857.91;5087586;28;20131;-72
2023/07/14 01:01:15;;;;;;;8.32;2.38;;;;;;;-146.27;74.99;81857.91;5065743;28;20377;-71
2023/07/14 01:03:42;;;;;;;7.82;1.92;;;;;;;-146.27;74.83;81898.09;5066574;28;20021;-72
2023/07/14 01:06:25;;;;;;;7.50;2.05;;;;;;;-146.27;74.85;81886.03;5065518;28;20038;-71
2023/07/14 01:09:01;;;;;;;4.43;1.95;;;;;;;-146.27;74.77;81894.06;5068907;28;20561;-71
2023/07/14 01:11:56;;;;;;;13.20;2.28;;;;;;;-146.27;75.39;81918.16;5066296;28;20089;-71
2023/07/14 01:14:31;;;;;;;8.02;2.63;;;;;;;-146.27;75.02;81910.13;5049263;28;20041;-72
2023/07/14 01:16:57;;;;;;;4.90;2.17;;;;;;;-146.27;75.46;81878.00;5068623;28;20024;-71
2023/07/14 01:19:36;;;;;;;8.13;2.30;;;;;;;-146.27;75.94;81890.06;5064837;28;20032;-72
2023/07/14 01:22:29;;;;;;;5.28;2.10;;;;;;;-146.27;75.42;81920.19;5053742;28;20025;-72
2023/07/14 01:24:59;;;;;;;8.70;2.40;;;;;;;-146.27;75.63;81930.22;5059640;28;20059;-72
2023/07/14 01:27:24;;;;;;;8.07;1.83;;;;;;;-146.27;75.77;81958.34;5070438;28;20145;-72
2023/07/14 01:29:51;;;;;;;4.95;1.95;;;;;;;-146.27;76.60;81934.25;5069930;28;20903;-72
2023/07/14 01:32:19;;;;;;;11.80;2.50;;;;;;;-146.27;76.82;81928.22;5078319;28;20032;-72
2023/07/14 01:34:45;;;;;;;8.30;2.28;;;;;;;-146.27;76.30;81942.28;5080318;28;20028;-72
2023/07/14 01:37:15;;;;;;;10.25;2.75;;;;;;;-146.27;76.11;81916.16;5070589;28;20066;-72
2023/07/14 01:39:42;;;;;;;6.10;2.25;;;;;;;-146.27;75.90;81946.28;5067446;28;20035;-72
2023/07/14 01:42:08;;;;;;;7.70;2.40;;;;;;;-146.27;76.11;81950.31;5069126;28;20052;-72
2023/07/14 01:44:35;;;;;;;3.60;2.00;;;;;;;-146.27;76.89;81954.31;5068674;28;20445;-72
2023/07/14 01:47:02;;;;;;;7.32;2.35;;;;;;;-146.27;76.59;81990.47;5067727;28;20024;-72
2023/07/14 01:49:27;;;;;;;6.72;2.30;;;;;;;-146.27;76.57;81982.44;5057210;28;20029;-73
2023/07/14 01:51:56;;;;;;;5.93;3.25;;;;;;;-146.27;76.59;81976.41;5057438;28;20384;-72
2023/07/14 01:54:44;;;;;;;6.07;2.10;;;;;;;-146.27;76.63;81962.34;5056124;28;20365;-72
2023/07/14 01:57:14;;;;;;;5.18;2.35;;;;;;;-146.27;76.85;81990.47;5070242;28;20460;-71
2023/07/14 01:59:45;;;;;;;8.48;2.65;;;;;;;-146.27;76.86;81952.31;5067710;28;20495;-72
2023/07/14 02:02:20;;;;;;;10.30;2.88;;;;;;;-146.27;76.99;81994.50;5064773;28;20028;-72
2023/07/14 02:04:47;;;;;;;6.85;2.55;;;;;;;-146.27;77.19;82014.59;5058672;28;20029;-72
2023/07/14 02:07:15;;;;;;;10.40;2.17;;;;;;;-146.27;77.09;81994.50;5070003;28;20027;-72
2023/07/14 02:09:41;;;;;;;3.10;2.08;;;;;;;-146.27;77.31;82010.56;5064689;28;20059;-72
2023/07/14 02:12:12;;;;;;;6.60;2.38;;;;;;;-146.27;77.47;82056.75;5067756;28;20050;-72
2023/07/14 02:14:48;;;;;;;6.40;2.22;;;;;;;-146.27;77.57;82030.66;5067418;28;20055;-71
2023/07/14 02:17:33;;;;;;;9.18;3.08;;;;;;;-146.27;77.89;82042.69;5070049;28;20459;-72
2023/07/14 02:20:03;;;;;;;5.20;2.50;;;;;;;-146.27;77.99;82032.66;5064159;28;20377;-71
2023/07/14 02:22:30;;;;;;;6.07;2.05;;;;;;;-146.27;78.16;82050.75;5058685;28;20082;-72
2023/07/14 02:24:56;;;;;;;7.00;2.50;;;;;;;-146.27;78.46;82082.88;5067834;28;20028;-73
2023/07/14 02:27:22;;;;;;;5.60;2.20;;;;;;;-146.27;78.65;82076.84;5058417;28;20038;-72
2023/07/14 02:29:47;;;;;;;8.52;2.97;;;;;;;-146.27;78.48;82054.75;5081134;28;20032;-72
2023/07/14 02:32:29;;;;;;;7.47;2.35;;;;;;;-146.27;77.94;82042.69;5079915;28;20384;-71
2023/07/14 02:35:18;;;;;;;4.43;2.30;;;;;;;-146.27;78.61;82026.63;5053577;28;20323;-72
2023/07/14 02:38:05;;;;;;;8.23;2.97;;;;;;;-146.27;78.38;82046.72;5050442;28;20029;-72
2023/07/14 02:40:44;;;;;;;6.57;2.65;;;;;;;-146.27;78.38;82121.03;5056926;28;20083;-71
2023/07/14 02:43:13;;;;;;;6.88;2.53;;;;;;;-146.27;78.30;82086.91;5070122;28;20029;-72
2023/07/14 02:45:51;;;;;;;9.68;2.60;;;;;;;-146.27;78.55;82102.97;5065108;28;20077;-71
2023/07/14 02:48:22;;;;;;;9.98;2.65;;;;;;;-146.27;79.01;82106.97;5068503;28;20027;-71
2023/07/14 02:50:48;;;;;;;7.97;2.22;;;;;;;-146.27;79.07;82121.03;5068396;28;20037;-71
2023/07/14 02:53:14;;;;;;;9.18;2.47;;;;;;;-146.27;79.01;82125.06;5069305;28;20425;-71
2023/07/14 02:55:40;;;;;;;6.28;2.33;;;;;;;-146.27;79.23;82106.97;5060634;28;20032;-72
2023/07/14 02:58:05;;;;;;;8.07;3.03;;;;;;;-146.27;79.11;82084.88;5086031;28;20107;-72
2023/07/14 03:00:30;;;;;;;4.13;2.55;;;;;;;-146.27;78.91;82082.88;5082207;28;20385;-72
2023/07/14 03:02:56;;;;;;;7.05;2.85;;;;;;;-146.27;79.12;82082.88;5071510;28;20115;-71
2023/07/14 03:05:22;;;;;;;6.88;2.55;;;;;;;-146.27;79.06;82106.97;5064393;28;20081;-71
2023/07/14 03:07:48;;;;;;;10.35;2.65;;;;;;;-146.27;79.12;82104.97;5074856;28;20036;-72
2023/07/14 03:10:14;;;;;;;10.23;2.20;;;;;;;-146.27;79.16;82119.03;5067758;28;20112;-71
2023/07/14 03:12:39;;;;;;;9.40;2.65;;;;;;;-146.27;79.35;82163.22;5062718;28;20063;-72
2023/07/14 03:15:05;;;;;;;7.10;2.70;;;;;;;-146.27;79.15;82076.84;5071190;28;20056;-72
2023/07/14 03:17:31;;;;;;;7.68;2.80;;;;;;;-146.27;79.06;82139.13;5069917;28;20035;-71
2023/07/14 03:19:56;;;;;;;11.48;2.90;;;;;;;-146.27;79.87;82159.22;5060764;28;20017;-72
2023/07/14 03:22:23;;;;;;;5.80;2.10;;;;;;;-146.27;79.70;82155.19;5058928;28;20028;-72
2023/07/14 03:24:48;;;;;;;5.47;2.40;;;;;;;-146.27;80.40;82133.09;5059215;28;20442;-72
2023/07/14 03:27:14;;;;;;;13.40;3.25;;;;;;;-146.27;80.77;82119.03;5073274;28;20016;-71
2023/07/14 03:29:40;;;;;;;9.93;2.90;;;;;;;-146.27;80.66;82088.91;5071402;28;20064;-72
2023/07/14 03:32:10;;;;;;;8.63;2.63;;;;;;;-146.27;80.13;82119.03;5069394;28;20021;-72
2023/07/14 03:34:36;;;;;;;9.60;2.30;;;;;;;-146.27;80.13;82139.13;5066099;28;20481;-71
2023/07/14 03:37:01;;;;;;;6.35;2.70;;;;;;;-146.27;79.75;82121.03;5070255;28;20089;-72
2023/07/14 03:39:28;;;;;;;9.82;2.83;;;;;;;-146.27;80.29;82159.22;5085553;28;20088;-72
2023/07/14 03:41:55;;;;;;;11.30;2.80;;;;;;;-146.27;80.14;82183.31;5069588;28;20117;-73
2023/07/14 03:44:21;;;;;;;12.25;2.40;;;;;;;-146.27;80.06;82135.09;5069497;28;20036;-73
2023/07/14 03:46:47;;;;;;;6.55;2.75;;;;;;;-146.27;80.11;82167.25;5055208;28;20477;-72
2023/07/14 03:49:13;;;;;;;9.32;2.60;;;;;;;-146.27;80.54;82197.38;5081101;28;20035;-73
2023/07/14 03:51:40;;;;;;;9.00;2.80;;;;;;;-146.27;80.70;82141.13;5087126;28;20165;-72
2023/07/14 03:54:05;;;;;;;11.60;2.88;;;;;;;-146.27;80.48;82171.25;5068125;28;20052;-72
2023/07/14 03:56:31;;;;;;;10.25;2.47;;;;;;;-146.27;80.87;82167.25;5062662;28;20021;-73
2023/07/14 03:58:56;;;;;;;11.35;2.38;;;;;;;-146.27;81.20;82191.34;5059267;28;20430;-72
2023/07/14 04:01:22;;;;;;;18.48;5.72;;;;;;;-146.27;81.29;82147.16;5059254;28;20035;-72
2023/07/14 04:03:48;;;;;;;11.00;2.80;;;;;;;-146.27;81.71;82171.25;5070333;28;20021;-72
2023/07/14 04:06:14;;;;;;;6.75;2.92;;;;;;;-146.27;81.38;82175.28;5070729;28;20519;-72
2023/07/14 04:08:42;;;;;;;12.30;3.10;;;;;;;-146.27;81.62;82173.28;5061146;28;20020;-72
2023/07/14 04:11:09;;;;;;;8.70;2.63;;;;;;;-146.27;81.43;82175.28;5057812;28;20070;-72
2023/07/14 04:13:35;;;;;;;13.80;2.92;;;;;;;-146.27;81.87;82171.25;5069937;28;20024;-72
2023/07/14 04:16:03;;;;;;;13.77;3.65;;;;;;;-146.27;82.18;82233.53;5074420;28;20036;-72
2023/07/14 04:18:30;;;;;;;7.40;2.45;;;;;;;-146.27;81.79;82209.44;5068436;28;20055;-71
2023/07/14 04:21:09;;;;;;;9.48;3.33;;;;;;;-146.27;82.10;82199.38;5067035;28;20028;-73
2023/07/14 04:23:34;;;;;;;9.57;2.47;;;;;;;-146.27;82.24;82207.41;5080992;28;20032;-72
2023/07/14 04:26:01;;;;;;;11.23;2.95;;;;;;;-146.27;82.76;82171.25;5068098;28;20032;-71
2023/07/14 04:28:28;;;;;;;8.07;2.92;;;;;;;-146.27;82.72;82213.44;5056610;28;20112;-72
2023/07/14 04:30:55;;;;;;;10.93;2.72;;;;;;;-146.27;82.59;82191.34;5065348;28;20017;-72
2023/07/14 04:33:21;;;;;;;6.60;2.85;;;;;;;-146.27;83.19;82171.25;5073031;28;20039;-72
2023/07/14 04:35:48;;;;;;;10.40;2.80;;;;;;;-146.27;82.54;82171.25;5072454;28;20036;-72
2023/07/14 04:38:14;;;;;;;8.32;3.22;;;;;;;-146.27;82.85;82211.44;5063012;28;20043;-72
2023/07/14 04:40:43;;;;;;;14.20;3.38;;;;;;;-146.27;83.04;82209.44;5068271;28;20025;-72
2023/07/14 04:43:09;;;;;;;14.13;3.40;;;;;;;-146.27;83.18;82159.22;5065987;28;20029;-72
2023/07/14 04:45:38;;;;;;;9.15;3.28;;;;;;;-146.27;83.16;82155.19;5066676;28;20032;-72
2023/07/14 04:48:06;;;;;;;10.32;4.07;;;;;;;-146.27;83.04;82143.13;5066098;28;20432;-72
2023/07/14 04:50:33;;;;;;;7.43;3.20;;;;;;;-146.27;83.05;82165.22;5068350;28;20113;-72
2023/07/14 04:52:59;;;;;;;17.15;4.55;;;;;;;-146.27;83.29;82197.38;5075576;28;20411;-72
2023/07/14 04:55:28;;;;;;;17.38;4.63;;;;;;;-146.27;83.81;82181.31;5061980;28;20029;-72
2023/07/14 04:57:54;;;;;;;9.45;4.00;;;;;;;-146.27;83.38;82141.13;5064011;28;20031;-71
2023/07/14 05:00:22;;;;;;;13.63;3.88;;;;;;;-146.27;83.55;82119.03;5065379;28;20468;-72
2023/07/14 05:02:48;;;;;;;16.52;5.20;;;;;;;-146.27;83.08;82127.06;5080948;28;20501;-72
2023/07/14 05:05:20;;;;;;;12.13;5.03;;;;;;;-146.27;82.94;82115.00;5076061;28;20028;-73
2023/07/14 05:07:47;;;;;;;12.57;4.72;;;;;;;-146.27;82.69;82121.03;5080471;28;20024;-72
2023/07/14 05:10:12;;;;;;;13.43;4.97;;;;;;;-146.27;83.09;82094.94;5070835;28;20102;-73
2023/07/14 05:12:38;;;;;;;10.35;4.78;;;;;;;-146.27;83.58;82131.09;5057963;28;20496;-72
2023/07/14 05:15:05;;;;;;;13.30;4.85;;;;;;;-146.27;83.54;82102.97;5070315;28;20020;-72
2023/07/14 05:17:34;;;;;;;14.57;4.88;;;;;;;-146.27;83.66;82084.88;5069626;28;20021;-72
2023/07/14 05:20:00;;;;;;;19.65;5.45;;;;;;;-146.27;83.62;82094.94;5069143;28;20020;-72
2023/07/14 05:22:26;;;;;;;10.40;5.20;;;;;;;-146.27;83.38;82078.84;5070982;28;20021;-71
2023/07/14 05:24:51;;;;;;;12.25;4.25;;;;;;;-146.27;83.17;82090.91;5066522;28;20052;-71
2023/07/14 05:27:17;;;;;;;16.98;4.90;;;;;;;-146.27;83.67;82121.03;5065417;28;20111;-71
2023/07/14 05:29:44;;;;;;;14.55;5.10;;;;;;;-146.27;83.97;82131.09;5058791;28;20061;-71
2023/07/14 05:32:10;;;;;;;10.38;4.72;;;;;;;-146.27;83.70;82102.97;5056342;28;20383;-72
2023/07/14 05:34:35;;;;;;;14.70;5.53;;;;;;;-146.27;83.53;82086.91;5061522;28;20028;-73
2023/07/14 05:37:00;;;;;;;17.65;5.15;;;;;;;-146.27;83.48;82066.81;5071054;28;20081;-72
2023/07/14 05:39:26;;;;;;;17.10;5.55;;;;;;;-146.27;83.31;82014.59;5070242;28;20139;-73
2023/07/14 05:41:51;;;;;;;15.10;5.38;;;;;;;-146.27;83.20;82062.78;5059218;28;20105;-72
2023/07/14 05:44:17;;;;;;;13.88;5.65;;;;;;;-146.27;83.30;82062.78;5069987;28;20037;-72
2023/07/14 05:46:42;;;;;;;11.82;6.07;;;;;;;-146.27;83.03;82038.69;5058781;28;20036;-72
2023/07/14 05:49:08;;;;;;;13.57;5.40;;;;;;;-146.27;82.82;82002.53;5060627;28;20035;-72
2023/07/14 05:51:33;;;;;;;15.90;5.47;;;;;;;-146.27;82.80;82002.53;5048534;28;21680;-72
2023/07/14 05:53:59;;;;;;;11.57;5.38;;;;;;;-146.27;82.88;81986.47;5057872;28;20393;-71
2023/07/14 05:56:25;;;;;;;15.02;5.82;;;;;;;-146.27;83.26;81938.25;5061092;28;20028;-72
2023/07/14 05:58:50;;;;;;;14.50;6.22;;;;;;;-146.27;82.67;81994.50;5068016;28;20035;-73
2023/07/14 06:01:15;;;;;;;18.05;6.38;;;;;;;-146.27;82.68;82016.59;5060387;28;20029;-73
2023/07/14 06:03:41;;;;;;;18.27;5.97;;;;;;;-146.27;82.42;81962.34;5069460;28;20060;-73
2023/07/14 06:06:07;;;;;;;16.63;5.85;;;;;;;-146.27;82.91;82080.88;5075803;28;20036;-74
2023/07/14 06:08:33;;;;;;;26.95;6.32;;;;;;;-146.27;82.49;81928.22;5071680;28;20037;-72
2023/07/14 06:10:58;;;;;;;16.02;6.00;;;;;;;-146.27;82.04;81950.31;5078214;28;20069;-72
2023/07/14 06:13:24;;;;;;;24.05;7.13;;;;;;;-146.27;82.54;81960.34;5069700;28;20025;-72
2023/07/14 06:15:49;;;;;;;22.63;6.22;;;;;;;-146.27;82.44;81942.28;5089125;28;20020;-71
2023/07/14 06:18:16;;;;;;;15.07;6.60;;;;;;;-146.27;82.53;81920.19;5071784;28;20047;-72
2023/07/14 06:20:41;;;;;;;13.05;6.63;;;;;;;-146.27;82.44;81930.22;5072727;28;20035;-71
2023/07/14 06:23:07;;;;;;;19.55;6.35;;;;;;;-146.27;82.47;81960.34;5064922;28;20465;-71
2023/07/14 06:25:33;;;;;;;18.60;6.40;;;;;;;-146.27;82.94;81940.25;5069301;28;20021;-71
2023/07/14 06:27:59;;;;;;;16.92;6.30;;;;;;;-146.27;82.88;81936.25;5068137;28;20029;-72
2023/07/14 06:30:25;;;;;;;17.70;6.78;;;;;;;-146.27;82.65;81878.00;5069456;28;20435;-71
2023/07/14 06:32:51;;;;;;;14.68;6.40;;;;;;;-146.27;82.44;81894.06;5066087;28;20016;-72
2023/07/14 06:35:18;;;;;;;17.20;6.20;;;;;;;-146.27;82.17;81876.00;5069977;28;20754;-72
2023/07/14 06:37:43;;;;;;;18.02;7.13;;;;;;;-146.27;81.74;81880.00;5070800;28;20021;-71
2023/07/14 06:40:10;;;;;;;15.13;7.05;;;;;;;-146.27;81.90;81849.88;5067479;28;20082;-72
2023/07/14 06:42:35;;;;;;;17.13;7.47;;;;;;;-146.27;81.21;81861.94;5066101;28;20063;-71
2023/07/14 06:45:03;;;;;;;27.23;7.65;;;;;;;-146.27;81.50;81863.94;5069028;28;20055;-72
2023/07/14 06:47:29;;;;;;;14.50;6.45;;;;;;;-146.27;81.87;81878.00;5066069;28;20020;-72
2023/07/14 06:49:54;;;;;;;18.85;6.97;;;;;;;-146.27;81.80;81857.91;5066469;28;20021;-71
2023/07/14 06:52:20;;;;;;;14.95;6.40;;;;;;;-146.27;82.22;81853.91;5063092;28;20043;-70
2023/07/14 06:54:46;;;;;;;22.52;7.10;;;;;;;-146.27;82.45;81851.88;5067981;28;20028;-71
2023/07/14 06:57:11;;;;;;;19.90;7.25;;;;;;;-146.27;82.10;81807.69;5065510;28;20403;-71
2023/07/14 06:59:37;;;;;;;16.38;6.93;;;;;;;-146.27;82.53;81849.88;5065168;28;20024;-72
2023/07/14 07:02:03;;;;;;;20.63;7.00;;;;;;;-146.27;82.39;81833.81;5068851;28;20020;-70
2023/07/14 07:04:28;;;;;;;20.20;6.85;;;;;;;-146.27;82.28;81869.97;5064855;28;20132;-71
2023/07/14 07:06:54;;;;;;;20.30;6.85;;;;;;;-146.27;82.44;81795.66;5065837;28;20020;-71
2023/07/14 07:09:19;;;;;;;15.15;6.88;;;;;;;-146.27;81.84;81773.56;5069178;28;20078;-70
2023/07/14 07:11:45;;;;;;;16.77;8.38;;;;;;;-146.27;81.22;81765.53;5059134;28;20150;-70
2023/07/14 07:14:10;;;;;;;17.05;7.68;;;;;;;-146.27;81.35;81765.53;5069022;28;20036;-71
2023/07/14 07:16:36;;;;;;;17.25;7.88;;;;;;;-146.27;80.97;81739.41;5080792;28;20086;-71
2023/07/14 07:19:02;;;;;;;18.35;7.75;;;;;;;-146.27;81.19;81779.59;5068933;28;20472;-71
2023/07/14 07:21:27;;;;;;;16.23;7.45;;;;;;;-146.27;81.53;81723.34;5067375;28;20029;-71
2023/07/14 07:23:53;;;;;;;15.85;7.32;;;;;;;-146.27;80.64;81741.41;5068567;28;20020;-71
2023/07/14 07:26:19;;;;;;;20.35;8.80;;;;;;;-146.27;80.73;81709.28;5070129;28;20031;-70
2023/07/14 07:28:44;;;;;;;25.13;8.65;;;;;;;-146.27;80.59;81685.19;5065847;28;20036;-70
2023/07/14 07:31:11;;;;;;;18.67;7.90;;;;;;;-146.27;80.24;81749.47;5065772;28;20024;-71
2023/07/14 07:33:38;;;;;;;15.80;7.93;;;;;;;-146.27;80.12;81701.25;5066779;28;20025;-72
2023/07/14 07:36:14;;;;;;;17.70;7.20;;;;;;;-146.27;80.18;81677.16;5065430;28;20028;-71
2023/07/14 07:38:48;;;;;;;15.75;6.95;;;;;;;-146.27;80.08;81723.34;5063184;28;20121;-72
2023/07/14 07:41:19;;;;;;;15.43;6.38;;;;;;;-146.27;80.10;81709.28;5069135;28;20040;-71
2023/07/14 07:43:45;;;;;;;12.93;6.95;;;;;;;-146.27;79.75;81687.19;5069025;28;20032;-71
2023/07/14 07:46:11;;;;;;;14.40;6.28;;;;;;;-146.27;80.10;81665.09;5064797;28;20043;-71
2023/07/14 07:48:37;;;;;;;23.05;7.05;;;;;;;-146.27;79.84;81693.22;5057003;28;20108;-72
2023/07/14 07:51:06;;;;;;;18.40;6.93;;;;;;;-146.27;79.20;81653.06;5068193;28;20021;-72
2023/07/14 07:53:32;;;;;;;13.23;6.72;;;;;;;-146.27;79.14;81647.03;5086245;28;20056;-71
2023/07/14 07:55:59;;;;;;;17.42;7.30;;;;;;;-146.27;78.60;81634.97;5071013;28;20033;-72
2023/07/14 07:58:25;;;;;;;16.10;6.03;;;;;;;-146.27;78.12;81560.66;5070284;28;20166;-72
2023/07/14 08:00:56;;;;;;;15.35;6.68;;;;;;;-146.27;77.22;81492.38;5075632;28;20131;-72
2023/07/14 08:03:22;;;;;;;12.63;7.35;;;;;;;-146.27;76.66;81520.50;5054635;28;20029;-72
2023/07/14 08:05:47;;;;;;;15.50;7.18;;;;;;;-146.27;76.60;81504.44;5065401;28;20375;-71
2023/07/14 08:08:13;;;;;;;17.67;6.93;;;;;;;-146.27;75.61;81524.50;5058893;28;20481;-71
2023/07/14 08:10:46;;;;;;;13.80;5.72;;;;;;;-146.27;75.18;81500.41;5048368;28;20488;-75
2023/07/14 08:13:13;;;;;;;19.58;6.20;;;;;;;-146.27;75.21;81520.50;5056070;28;20047;-72
2023/07/14 08:15:39;;;;;;;11.80;4.93;;;;;;;-146.27;74.91;81496.41;5068120;28;20391;-74
2023/07/14 08:18:07;;;;;;;11.45;5.10;;;;;;;-146.27;74.88;81496.41;5067760;28;20024;-72
2023/07/14 08:20:34;;;;;;;10.20;5.00;;;;;;;-146.27;74.40;81426.09;5072723;28;20027;-75
2023/07/14 08:23:04;;;;;;;21.35;7.72;;;;;;;-146.27;73.73;81448.19;5070390;28;20113;-74
2023/07/14 08:25:29;;;;;;;19.23;9.02;;;;;;;-146.27;73.73;81428.09;5075256;28;20032;-75
2023/07/14 08:27:55;;;;;;;24.50;10.98;;;;;;;-146.27;73.36;81466.28;5086830;28;20032;-74
2023/07/14 08:30:20;;;;;;;26.73;9.88;;;;;;;-146.27;73.10;81440.16;5083561;28;20399;-74
2023/07/14 08:32:49;;;;;;;20.95;8.93;;;;;;;-146.27;72.93;81444.19;5066118;28;20020;-74
2023/07/14 08:35:16;;;;;;;12.30;7.45;;;;;;;-146.27;72.68;81420.06;5095766;28;20031;-74
2023/07/14 08:37:41;;;;;;;11.73;7.07;;;;;;;-146.27;72.17;81450.19;5079251;28;20032;-74
2023/07/14 08:40:13;;;;;;;14.27;6.30;;;;;;;-146.27;71.90;81428.09;5074625;28;20033;-75
2023/07/14 08:43:32;;;;;;;13.68;5.45;;;;;;;-146.27;70.76;81377.91;5085320;28;20031;-75
2023/07/14 08:46:16;;;;;;;9.20;4.97;;;;;;;-146.27;71.29;81359.81;5085768;28;20031;-75
2023/07/14 08:48:52;;;;;;;11.10;5.68;;;;;;;-146.27;69.75;81319.66;5063698;28;20049;-73
2023/07/14 08:51:29;;;;;;;11.65;4.63;;;;;;;-146.27;69.32;81299.59;5076184;28;20020;-74
2023/07/14 08:54:05;;;;;;;9.95;4.53;;;;;;;-146.27;67.10;81299.59;5070659;28;20480;-74
2023/07/14 08:56:33;;;;;;;9.00;4.00;;;;;;;-146.27;67.00;81311.63;5069870;28;20024;-75
2023/07/14 08:58:59;;;;;;;11.13;4.32;;;;;;;-146.27;67.92;81319.66;5072730;28;20122;-71
2023/07/14 09:01:42;;;;;;;9.40;4.20;;;;;;;-146.27;67.18;81207.19;5074788;28;20070;-71
2023/07/14 09:04:21;;;;;;;11.32;4.25;;;;;;;-146.27;66.49;81199.16;5054211;28;20401;-76
2023/07/14 09:06:47;;;;;;;9.23;3.97;;;;;;;-146.27;65.34;81199.16;5070589;28;20035;-74
2023/07/14 09:09:16;;;;;;;13.95;4.43;;;;;;;-146.27;66.36;81116.84;5071921;28;20476;-75
2023/07/14 09:11:44;;;;;;;9.65;3.60;;;;;;;-146.27;62.51;81126.88;5068382;28;20540;-75
2023/07/14 09:14:52;;;;;;;6.72;3.95;;;;;;;-146.27;62.96;81082.69;5064341;28;20024;-73
2023/07/14 09:17:45;;;;;;;9.77;3.10;;;;;;;-146.27;62.40;81056.59;5082448;28;20141;-75
2023/07/14 09:20:20;;;;;;;5.45;2.78;;;;;;;-146.27;65.32;81074.66;5052679;28;20503;-75
2023/07/14 09:23:35;;;;;;;10.90;3.40;;;;;;;-146.27;60.55;81072.66;5069535;28;20507;-74
2023/07/14 09:26:19;;;;;;;5.50;2.80;;;;;;;-146.27;61.51;80970.25;5047533;28;20033;-77
2023/07/14 09:28:48;;;;;;;8.65;3.65;;;;;;;-146.27;59.56;81048.56;5037420;28;20703;-73
2023/07/14 09:32:00;;;;;;;6.65;2.90;;;;;;;-146.27;59.73;81024.47;5061569;28;20072;-75
2023/07/14 09:34:50;;;;;;;12.13;3.20;;;;;;;-146.27;60.76;81030.47;5057296;28;20679;-73
2023/07/14 09:37:20;;;;;;;5.80;2.72;;;;;;;-146.27;60.34;80926.06;5058953;28;20569;-73
2023/07/14 09:39:51;;;;;;;6.78;3.03;;;;;;;-146.27;60.40;80952.16;5074661;28;20423;-74
2023/07/14 09:42:34;;;;;;;5.28;3.00;;;;;;;-146.27;60.03;81010.41;5062521;28;20020;-74
2023/07/14 09:45:35;;;;;;;7.93;2.58;;;;;;;-146.27;58.02;80978.28;5067433;28;20048;-73
2023/07/14 09:48:17;;;;;;;7.20;2.67;;;;;;;-146.27;57.63;81020.44;5063477;28;20033;-73
2023/07/14 09:50:59;;;;;;;14.80;3.03;;;;;;;-146.27;58.45;81000.34;5062790;28;20039;-75
2023/07/14 09:53:25;;;;;;;6.00;2.70;;;;;;;-146.27;58.44;80950.16;5071831;28;20031;-73
2023/07/14 09:56:01;;;;;;;7.45;2.30;;;;;;;-146.27;58.48;80930.06;5066534;28;20040;-74
2023/07/14 09:58:32;;;;;;;4.03;2.25;;;;;;;-146.27;57.79;80950.16;5068126;28;20028;-74
2023/07/14 10:01:02;;;;;;;6.00;2.63;;;;;;;-146.27;57.26;80905.97;5082470;28;20612;-74
2023/07/14 10:03:42;;;;;;;8.25;2.13;;;;;;;-146.27;56.93;80918.03;5067076;28;20066;-73
2023/07/14 10:06:16;;;;;;;4.15;2.10;;;;;;;-146.27;58.36;80861.81;5066524;28;20040;-73
2023/07/14 10:08:55;;;;;;;4.20;2.13;;;;;;;-146.27;56.45;80910.00;5068441;28;20086;-75
2023/07/14 10:11:25;;;;;;;5.68;2.20;;;;;;;-146.27;55.14;80875.84;5066500;28;20060;-75
2023/07/14 10:13:57;;;;;;;4.05;2.20;;;;;;;-146.27;54.36;80897.94;5065454;28;20070;-76
2023/07/14 10:16:24;;;;;;;12.05;2.65;;;;;;;-146.27;54.79;80879.88;5065478;28;20476;-76
2023/07/14 10:19:00;;;;;;;8.68;2.53;;;;;;;-146.27;55.18;80930.06;5090030;28;20060;-76
2023/07/14 10:21:30;;;;;;;6.13;2.38;;;;;;;-146.27;53.99;80980.28;5058158;28;20044;-73
2023/07/14 10:24:15;;;;;;;6.45;2.40;;;;;;;-146.27;53.50;81026.47;5072305;28;20024;-72
2023/07/14 10:26:48;;;;;;;10.02;2.60;;;;;;;-146.27;54.45;80986.31;5060623;28;20077;-71
2023/07/14 10:29:19;;;;;;;6.50;2.10;;;;;;;-146.27;54.04;81026.47;5065081;28;20396;-75
2023/07/14 10:31:48;;;;;;;4.72;1.90;;;;;;;-146.27;54.88;80946.13;5058947;28;20035;-73
2023/07/14 10:34:16;;;;;;;4.60;2.42;;;;;;;-146.27;54.69;80916.03;5065071;28;20059;-75
2023/07/14 10:36:43;;;;;;;4.95;2.20;;;;;;;-146.27;53.26;80942.13;5071156;28;20085;-74
2023/07/14 10:39:16;;;;;;;5.75;1.90;;;;;;;-146.27;53.99;80952.16;5079259;28;20020;-73
2023/07/14 10:41:42;;;;;;;;;;;;;;;-146.27;53.87;80893.94;5067979;28;20024;-75
2023/07/14 10:44:22;;;;;;;8.05;2.60;;;;;;;-146.27;52.89;80978.28;5059180;28;20543;-73
2023/07/14 10:46:53;;;;;;;7.50;2.03;;;;;;;-146.27;56.23;80954.19;5052070;28;20037;-74
2023/07/14 10:49:25;;;;;;;6.45;2.05;;;;;;;-146.27;55.65;80885.91;5069438;28;20085;-74
2023/07/14 10:52:03;;;;;;;5.82;2.40;;;;;;;-146.27;54.18;80940.13;5067994;28;20135;-74
2023/07/14 10:54:57;;;;;;;4.90;1.80;;;;;;;-146.27;53.61;80865.81;5063164;28;20024;-75
2023/07/14 10:57:29;;;;;;;7.10;2.25;;;;;;;-146.27;53.04;80849.75;5064120;28;20032;-74
2023/07/14 10:59:59;;;;;;;8.55;2.20;;;;;;;-146.27;53.02;80769.44;5069724;28;20052;-75
2023/07/14 11:02:37;;;;;;;9.25;2.47;;;;;;;-146.27;52.18;80773.44;5068840;28;20031;-74
2023/07/14 11:05:08;;;;;;;6.78;2.10;;;;;;;-146.27;52.17;80791.53;5060290;28;20166;-75
2023/07/14 11:07:34;;;;;;;5.18;2.10;;;;;;;-146.27;51.83;80777.47;5069627;28;20048;-76
2023/07/14 11:10:03;;;;;;;7.00;2.53;;;;;;;-146.27;49.88;80757.38;5073693;28;20435;-76
2023/07/14 11:12:41;;;;;;;6.15;2.22;;;;;;;-146.27;48.21;80729.28;5070238;28;20075;-76
2023/07/14 11:15:14;;;;;;;3.97;1.73;;;;;;;-146.27;47.66;80797.53;5069982;28;20056;-76
2023/07/14 11:18:06;;;;;;;4.72;1.85;;;;;;;-146.27;47.59;80769.44;5076514;28;20539;-75
2023/07/14 11:20:39;;;;;;;8.35;1.90;;;;;;;-146.27;46.88;80697.16;5070224;28;20033;-75
2023/07/14 11:23:23;;;;;;;4.07;1.67;;;;;;;-146.27;46.71;80677.06;5066312;28;20068;-74
2023/07/14 11:26:24;;;;;;;6.63;1.88;;;;;;;-146.27;47.71;80663.00;5053445;28;20085;-75
2023/07/14 11:28:56;;;;;;;4.25;2.00;;;;;;;-146.27;48.35;80576.66;5055940;28;20036;-77